KLAM

Los Alamos Airport

Los Alamos, New Mexico, USA
METAR KLAM 232015Z AUTO 00000KT 1SM BR OVC002 09/09 A3026 RMK AO2 T00900090
Observed Flight Rules
Oct-23 @ 20:15 UTC (17 minutes ago) Instrument Flight Rules
Visibility Clouds Conditions
1 miles
  • Overcast at 200' AGL
  • Mist
Temperatures Readings
Current 9°C / 48°F
Dewpoint 9°C / 48°F
Humidity 100%
Altimeter 30.26" Hg
Pressure 1025 hPa
Elevation 2179
METAR KLAM 232015Z AUTO 00000KT 1SM BR OVC002 09/09 A3026 RMK AO2 T00900090
Observed Flight Rules
Oct-23 @ 20:15 UTC
(17 minutes ago)
LIFR
Clouds
  • Overcast at 200' AGL
Conditions
  • Mist
Temperature Dewpoint
9°C / 48°F 9°C / 48°F
Humidity Altimeter Pressure
100% 30.26" Hg 1025 hPa